Time;durP1;ratioP1;P1;durP2;ratioP2;P2;SDS_P1;SDS_P2;PMS_P1;PMS_P2;Temp;Humidity;BMP_temperature;BMP_pressure;BME280_temperature;BME280_humidity;BME280_pressure;Samples;Min_cycle;Max_cycle;Signal;HPM_P1;HPM_P2
2021/03/29 05:32:23;;;;;;;43.20;17.52;;;;;;;3.50;66.72;101573.75;1716797;78;27111;-65
2021/03/29 05:34:54;;;;;;;35.45;18.45;;;;;;;3.54;66.66;101578.11;1704869;84;25324;-66
2021/03/29 05:37:22;;;;;;;40.92;18.67;;;;;;;3.60;66.62;101580.41;1702743;83;25458;-65
2021/03/29 05:39:53;;;;;;;36.17;18.15;;;;;;;3.65;66.51;101581.34;1710897;82;25318;-66
2021/03/29 05:42:21;;;;;;;32.88;16.35;;;;;;;3.70;66.58;101580.13;1716398;83;25794;-66
2021/03/29 05:44:52;;;;;;;35.03;17.87;;;;;;;3.74;66.60;101581.27;1716383;83;25196;-66
2021/03/29 05:47:19;;;;;;;35.08;18.27;;;;;;;3.82;66.58;101583.34;1716356;83;25343;-66
2021/03/29 05:49:46;;;;;;;37.67;17.98;;;;;;;3.90;66.53;101582.47;1716388;83;25492;-65
2021/03/29 05:52:12;;;;;;;44.38;18.30;;;;;;;3.97;66.39;101581.02;1716352;83;25477;-65
2021/03/29 05:54:40;;;;;;;37.33;19.42;;;;;;;4.03;66.29;101593.98;1716347;83;26201;-65
2021/03/29 05:57:10;;;;;;;40.33;17.75;;;;;;;4.10;66.38;101593.34;1716261;83;25453;-65
2021/03/29 05:59:42;;;;;;;39.60;20.27;;;;;;;4.16;66.21;101597.77;1716220;83;25559;-65
2021/03/29 06:02:12;;;;;;;32.45;17.10;;;;;;;4.20;66.03;101594.90;1716530;83;25550;-65
2021/03/29 06:04:49;;;;;;;35.92;17.17;;;;;;;4.25;66.06;101596.89;1704301;83;25567;-65
2021/03/29 06:07:20;;;;;;;34.78;17.70;;;;;;;4.32;66.08;101594.89;1703099;84;26808;-68
2021/03/29 06:09:48;;;;;;;36.15;19.32;;;;;;;4.38;66.00;101585.13;1702988;84;25644;-66
2021/03/29 06:12:17;;;;;;;36.53;18.25;;;;;;;4.44;66.02;101593.53;1703059;82;25391;-65
2021/03/29 06:14:44;;;;;;;35.70;17.30;;;;;;;4.51;65.96;101592.07;1703269;83;25497;-66
2021/03/29 06:17:14;;;;;;;35.75;17.80;;;;;;;4.58;65.92;101596.27;1703380;83;25476;-65
2021/03/29 06:19:52;;;;;;;36.48;17.27;;;;;;;4.65;65.85;101596.13;1703328;84;25737;-65
2021/03/29 06:22:40;;;;;;;39.67;17.65;;;;;;;4.74;65.87;101591.20;1703346;84;25310;-65
2021/03/29 06:25:22;;;;;;;35.35;17.45;;;;;;;4.81;65.81;101588.66;1703425;84;25387;-65
2021/03/29 06:27:56;;;;;;;35.33;16.57;;;;;;;4.92;65.75;101584.33;1703390;83;25450;-65
2021/03/29 06:30:38;;;;;;;33.65;16.80;;;;;;;5.02;65.92;101590.39;1702556;84;25612;-65
2021/03/29 06:33:18;;;;;;;31.52;16.85;;;;;;;5.11;65.96;101585.45;1704047;82;26688;-65
2021/03/29 06:35:50;;;;;;;;;;;;;;;5.19;65.84;101591.77;1706412;82;26145;-65
2021/03/29 06:38:28;;;;;;;34.95;16.52;;;;;;;5.29;65.92;101599.20;1709688;83;25580;-65
2021/03/29 06:41:04;;;;;;;34.43;17.92;;;;;;;5.35;65.90;101603.61;1743599;82;25536;-65
2021/03/29 06:43:39;;;;;;;32.50;17.52;;;;;;;5.40;65.77;101604.50;1703288;84;25303;-65
2021/03/29 06:46:28;;;;;;;32.17;16.80;;;;;;;5.45;65.86;101607.81;1703094;84;25957;-66
2021/03/29 06:48:57;;;;;;;35.00;17.40;;;;;;;5.51;66.04;101606.02;1703001;84;25541;-66
2021/03/29 06:51:30;;;;;;;30.95;16.05;;;;;;;5.59;66.02;101609.66;1703001;84;25306;-67
2021/03/29 06:54:07;;;;;;;34.45;17.50;;;;;;;5.65;66.13;101611.34;1702333;84;25133;-66
2021/03/29 06:56:41;;;;;;;34.20;16.55;;;;;;;5.73;65.88;101616.31;1692873;83;25607;-66
2021/03/29 06:59:15;;;;;;;30.55;17.23;;;;;;;5.79;65.73;101615.89;1691932;83;25720;-66
2021/03/29 07:01:50;;;;;;;36.60;18.32;;;;;;;5.85;65.99;101622.14;1691814;84;25698;-66
2021/03/29 07:04:25;;;;;;;33.95;17.15;;;;;;;5.93;65.70;101627.11;1691963;83;25316;-66
2021/03/29 07:06:53;;;;;;;35.95;17.87;;;;;;;5.98;65.84;101626.68;1691884;83;25551;-66
2021/03/29 07:09:21;;;;;;;31.85;16.87;;;;;;;6.03;65.64;101625.95;1691996;83;25161;-66
2021/03/29 07:15:27;;;;;;;;;;;;;;;6.11;65.59;101624.70;1694433;84;25319;-65
2021/03/29 07:17:53;;;;;;;27.10;15.90;;;;;;;6.18;65.55;101610.59;1754216;81;25303;-65
2021/03/29 07:20:25;;;;;;;29.10;17.37;;;;;;;6.28;65.76;101620.14;1752316;81;25470;-64
2021/03/29 07:22:54;;;;;;;32.80;16.90;;;;;;;6.34;65.48;101617.79;1724353;81;25610;-65
2021/03/29 07:25:30;;;;;;;33.92;16.00;;;;;;;6.43;65.70;101620.86;1722569;82;25713;-64
2021/03/29 07:28:00;;;;;;;32.80;16.57;;;;;;;6.53;65.66;101622.88;1722295;82;25529;-65
2021/03/29 07:30:50;;;;;;;32.33;16.37;;;;;;;6.60;65.65;101628.08;1722480;83;25373;-66
2021/03/29 07:33:19;;;;;;;35.05;17.20;;;;;;;6.66;65.64;101622.52;1733483;80;25300;-66
2021/03/29 07:35:52;;;;;;;31.93;15.87;;;;;;;6.75;66.08;101616.70;1733867;82;25574;-66
2021/03/29 07:38:26;;;;;;;32.40;17.12;;;;;;;6.84;66.40;101617.34;1733456;82;26606;-66
2021/03/29 07:40:57;;;;;;;27.37;15.13;;;;;;;6.91;66.28;101619.33;1733551;82;25590;-65
2021/03/29 07:43:27;;;;;;;29.32;15.23;;;;;;;6.97;66.50;101620.19;1733865;82;25564;-68
2021/03/29 07:46:04;;;;;;;30.35;15.13;;;;;;;7.01;66.17;101620.48;1733901;82;25599;-67
2021/03/29 07:48:42;;;;;;;28.67;15.65;;;;;;;7.02;66.14;101625.63;1732725;82;25600;-66
2021/03/29 07:51:17;;;;;;;27.37;15.63;;;;;;;7.02;66.12;101630.20;1733870;82;25775;-66
2021/03/29 07:53:53;;;;;;;27.27;15.58;;;;;;;7.04;66.44;101618.11;1733277;82;25415;-65
2021/03/29 07:56:41;;;;;;;30.23;15.40;;;;;;;7.10;66.58;101617.64;1726435;81;25664;-65
2021/03/29 07:59:08;;;;;;;34.33;16.55;;;;;;;7.19;66.57;101624.73;1756085;81;25410;-65
2021/03/29 08:02:03;;;;;;;30.30;15.08;;;;;;;7.20;66.52;101626.34;1754748;81;25543;-65
2021/03/29 08:05:04;;;;;;;26.45;14.10;;;;;;;7.23;66.83;101623.14;1748028;81;27398;-66
2021/03/29 08:07:47;;;;;;;24.52;13.60;;;;;;;7.27;66.97;101622.91;1736834;81;25590;-66
2021/03/29 08:10:17;;;;;;;25.23;12.90;;;;;;;7.36;67.24;101628.12;1732962;82;26145;-66
2021/03/29 08:13:00;;;;;;;24.67;13.22;;;;;;;7.41;67.52;101621.44;1733823;82;25589;-67
2021/03/29 08:16:03;;;;;;;26.52;12.85;;;;;;;7.44;67.23;101623.63;1733984;82;25162;-68
2021/03/29 08:18:50;;;;;;;22.60;13.00;;;;;;;7.49;67.41;101621.50;1733733;82;25711;-66
2021/03/29 08:22:10;;;;;;;27.17;13.55;;;;;;;7.54;67.89;101614.01;1724892;82;25752;-66
2021/03/29 08:24:47;;;;;;;;;;;;;;;7.65;68.22;101623.81;1698187;84;25420;-68
2021/03/29 08:27:23;;;;;;;24.77;13.62;;;;;;;7.96;68.49;101622.70;1745712;81;25471;-66
2021/03/29 08:32:38;;;;;;;29.07;14.30;;;;;;;8.63;67.86;101616.36;1889337;76;34615;-68
2021/03/29 08:35:11;;;;;;;20.82;12.58;;;;;;;8.74;67.99;101617.49;1859830;77;25621;-68
2021/03/29 08:37:50;;;;;;;22.37;12.45;;;;;;;8.88;67.20;101615.66;1838957;76;25692;-68
2021/03/29 08:40:26;;;;;;;24.87;11.38;;;;;;;9.15;67.48;101618.16;1837713;76;25495;-69
2021/03/29 08:42:57;;;;;;;21.95;10.98;;;;;;;9.48;66.86;101615.52;1859977;77;25593;-68
2021/03/29 08:45:28;;;;;;;16.67;10.15;;;;;;;9.59;65.56;101613.63;1858351;77;25148;-67
2021/03/29 08:47:58;;;;;;;18.17;10.00;;;;;;;9.57;65.11;101622.55;1850120;76;25492;-68
2021/03/29 08:50:35;;;;;;;17.27;9.18;;;;;;;9.53;65.18;101611.47;1826316;78;25768;-66
2021/03/29 08:53:09;;;;;;;14.60;9.30;;;;;;;9.56;65.28;101617.41;1826228;78;25494;-66
2021/03/29 08:55:39;;;;;;;16.23;9.40;;;;;;;9.62;65.44;101606.34;1826365;78;25848;-67
2021/03/29 08:58:08;;;;;;;18.27;10.40;;;;;;;9.78;65.24;101604.43;1826288;78;25556;-66
2021/03/29 09:00:38;;;;;;;17.05;10.10;;;;;;;10.03;65.92;101609.00;1826226;78;25276;-66
2021/03/29 09:03:23;;;;;;;16.15;8.73;;;;;;;10.23;65.35;101601.92;1826173;78;25762;-67
2021/03/29 09:05:50;;;;;;;14.87;8.48;;;;;;;10.49;64.90;101605.92;1826186;78;25454;-66
2021/03/29 09:08:18;;;;;;;17.25;9.30;;;;;;;10.61;64.07;101602.39;1825193;78;25660;-66
2021/03/29 09:10:46;;;;;;;18.75;8.85;;;;;;;10.69;64.11;101606.39;1826325;78;25520;-67
2021/03/29 09:13:21;;;;;;;18.85;9.48;;;;;;;10.89;64.54;101617.67;1828633;76;25109;-67
2021/03/29 09:15:49;;;;;;;17.27;8.95;;;;;;;11.10;64.43;101620.55;1829534;78;25684;-65
2021/03/29 09:18:20;;;;;;;15.28;8.90;;;;;;;11.24;63.41;101620.73;1829584;78;25413;-65
2021/03/29 09:20:50;;;;;;;14.83;8.38;;;;;;;11.30;62.77;101617.44;1829388;78;25319;-66
2021/03/29 09:23:21;;;;;;;16.65;7.95;;;;;;;11.38;63.00;101618.20;1827952;78;25525;-66
2021/03/29 09:25:51;;;;;;;17.95;8.10;;;;;;;11.53;63.04;101610.50;1829633;78;25354;-65
2021/03/29 09:31:04;;;;;;;15.83;7.40;;;;;;;11.74;62.89;101611.94;1829023;78;25545;-66
2021/03/29 09:33:32;;;;;;;14.38;7.08;;;;;;;11.80;62.50;101611.89;1826098;78;25312;-66
2021/03/29 09:36:09;;;;;;;12.30;6.60;;;;;;;11.84;61.36;101621.89;1829703;78;25271;-66
2021/03/29 09:38:45;;;;;;;12.47;6.67;;;;;;;11.71;61.17;101615.77;1829063;78;25651;-65
2021/03/29 09:41:24;;;;;;;12.40;7.37;;;;;;;11.62;61.37;101608.80;1832797;77;27340;-66
2021/03/29 09:43:54;;;;;;;14.20;7.30;;;;;;;11.61;62.24;101612.58;1859508;77;25458;-66
2021/03/29 09:46:34;;;;;;;13.78;6.72;;;;;;;11.64;62.38;101616.64;1859214;77;25274;-65
2021/03/29 09:49:17;;;;;;;11.97;6.40;;;;;;;11.65;62.41;101621.78;1858989;77;25688;-65
2021/03/29 09:51:48;;;;;;;13.55;6.30;;;;;;;11.55;62.22;101615.89;1858113;77;25704;-65
2021/03/29 09:54:37;;;;;;;12.85;6.22;;;;;;;11.52;62.85;101619.16;1858388;77;25785;-65
2021/03/29 09:57:19;;;;;;;13.93;6.62;;;;;;;11.57;62.81;101620.47;1858701;77;25323;-65
2021/03/29 09:59:45;;;;;;;14.93;6.22;;;;;;;11.57;62.36;101618.32;1858537;77;25620;-67
2021/03/29 10:02:21;;;;;;;14.15;6.55;;;;;;;11.45;62.53;101613.26;1858782;77;25546;-66
2021/03/29 10:04:59;;;;;;;15.48;7.65;;;;;;;11.38;62.76;101611.42;1859259;77;25599;-66
2021/03/29 10:07:26;;;;;;;11.73;7.05;;;;;;;11.34;63.15;101613.06;1858450;77;26123;-66
2021/03/29 10:10:03;;;;;;;14.30;6.45;;;;;;;11.28;63.21;101614.20;1859194;77;25314;-66
2021/03/29 10:12:32;;;;;;;11.00;7.00;;;;;;;11.24;63.83;101617.19;1859237;77;25491;-65
2021/03/29 10:15:14;;;;;;;13.58;6.85;;;;;;;11.21;63.83;101619.93;1859016;77;25696;-66
2021/03/29 10:17:41;;;;;;;15.93;7.72;;;;;;;11.13;64.37;101618.61;1859212;77;25464;-66
2021/03/29 10:20:13;;;;;;;14.00;7.28;;;;;;;11.15;64.83;101620.52;1828471;76;25693;-66
2021/03/29 10:22:40;;;;;;;13.45;7.78;;;;;;;11.14;65.10;101615.38;1824562;78;25518;-70
2021/03/29 10:25:15;;;;;;;13.53;7.37;;;;;;;11.15;65.24;101615.10;1825410;78;25228;-70
2021/03/29 10:27:51;;;;;;;13.35;7.67;;;;;;;11.19;65.05;101612.64;1825759;76;25603;-69
2021/03/29 10:30:23;;;;;;;21.12;7.83;;;;;;;11.10;64.91;101611.59;1825034;78;25560;-68
2021/03/29 10:33:00;;;;;;;14.98;7.95;;;;;;;11.03;65.39;101601.91;1828251;78;26528;-69
2021/03/29 10:35:31;;;;;;;15.80;7.55;;;;;;;11.03;65.74;101601.91;1837051;76;25509;-70
2021/03/29 10:38:03;;;;;;;13.90;7.87;;;;;;;11.17;66.71;101604.79;1839772;77;25595;-68
2021/03/29 10:40:31;;;;;;;13.43;7.87;;;;;;;11.31;66.52;101604.16;1839937;77;25549;-67
2021/03/29 10:42:58;;;;;;;25.68;7.92;;;;;;;11.41;65.92;101614.92;1828489;78;25459;-68
2021/03/29 10:45:24;;;;;;;16.48;7.90;;;;;;;11.35;65.47;101601.94;1829126;78;26122;-70
2021/03/29 10:47:51;;;;;;;12.00;6.67;;;;;;;11.32;65.42;101611.19;1830111;78;25543;-67
2021/03/29 10:50:21;;;;;;;12.85;7.78;;;;;;;11.32;65.43;101590.34;1828222;78;25618;-70
2021/03/29 10:52:48;;;;;;;17.73;8.18;;;;;;;11.38;66.17;101582.42;1828382;78;25457;-69
2021/03/29 10:55:16;;;;;;;16.15;7.47;;;;;;;11.44;65.68;101594.05;1828940;78;25470;-68
2021/03/29 10:57:43;;;;;;;13.03;6.97;;;;;;;11.53;65.53;101597.76;1828722;78;28011;-69
2021/03/29 11:00:11;;;;;;;13.65;7.10;;;;;;;11.59;64.10;101593.92;1828534;78;25514;-68
2021/03/29 11:02:38;;;;;;;10.48;6.55;;;;;;;11.59;64.17;101592.57;1828672;78;25250;-69
2021/03/29 11:05:07;;;;;;;12.75;6.25;;;;;;;11.52;62.66;101592.62;1830173;78;25441;-69
2021/03/29 11:07:35;;;;;;;13.20;6.30;;;;;;;11.43;62.93;101599.19;1829765;78;25138;-68
2021/03/29 11:10:03;;;;;;;13.15;6.50;;;;;;;11.42;63.56;101596.20;1829140;78;26784;-69
2021/03/29 11:12:30;;;;;;;12.85;6.95;;;;;;;11.47;63.39;101589.95;1828958;78;25563;-68
2021/03/29 11:14:57;;;;;;;13.45;6.75;;;;;;;11.40;62.63;101596.48;1828665;78;25489;-69
2021/03/29 11:17:27;;;;;;;13.83;7.35;;;;;;;11.30;62.64;101598.47;1828683;78;25417;-69
2021/03/29 11:19:53;;;;;;;14.85;8.13;;;;;;;11.20;63.20;101596.11;1828957;78;30990;-69
2021/03/29 11:22:20;;;;;;;14.50;7.62;;;;;;;11.09;63.20;101601.31;1828341;78;26212;-69
2021/03/29 11:24:47;;;;;;;13.60;7.67;;;;;;;11.00;63.38;101598.95;1828813;78;25456;-68
2021/03/29 11:27:13;;;;;;;13.58;8.03;;;;;;;10.93;63.74;101599.77;1829064;78;25506;-70
2021/03/29 11:29:40;;;;;;;16.60;8.65;;;;;;;10.90;64.21;101600.36;1828776;78;25584;-69
2021/03/29 11:32:10;;;;;;;19.92;9.05;;;;;;;10.86;64.59;101599.28;1824689;78;25492;-70
2021/03/29 11:34:37;;;;;;;18.52;8.98;;;;;;;10.77;64.74;101595.00;1818878;78;26537;-69
2021/03/29 11:37:04;;;;;;;16.67;11.00;;;;;;;10.66;65.05;101602.36;1834507;77;25387;-69
2021/03/29 11:39:31;;;;;;;15.58;9.45;;;;;;;10.59;65.28;101595.06;1857553;77;25522;-67
2021/03/29 11:41:57;;;;;;;15.50;9.98;;;;;;;10.54;65.59;101589.67;1856935;77;26166;-68
2021/03/29 11:44:24;;;;;;;19.37;10.80;;;;;;;10.53;65.89;101592.13;1856850;77;25507;-68
2021/03/29 11:46:52;;;;;;;17.82;9.33;;;;;;;10.48;66.25;101598.91;1857143;77;27055;-69
2021/03/29 11:49:19;;;;;;;18.02;10.13;;;;;;;10.44;66.53;101594.60;1857005;77;25549;-68
2021/03/29 11:51:46;;;;;;;19.27;10.80;;;;;;;10.44;66.71;101590.55;1837049;77;25687;-68
2021/03/29 11:54:13;;;;;;;19.62;10.40;;;;;;;10.47;66.92;101594.02;1809058;78;25591;-68
2021/03/29 11:56:40;;;;;;;18.20;10.48;;;;;;;10.53;67.12;101586.72;1796173;79;25432;-68
2021/03/29 11:59:07;;;;;;;24.10;10.40;;;;;;;10.54;67.27;101590.50;1796015;79;25875;-69
2021/03/29 12:01:45;;;;;;;20.52;11.28;;;;;;;10.53;67.05;101584.81;1796170;79;25473;-68
2021/03/29 12:06:47;;;;;;;23.05;11.73;;;;;;;10.50;67.25;101579.16;1822938;77;26190;-69
2021/03/29 12:09:35;;;;;;;18.57;10.72;;;;;;;10.51;67.54;101583.48;1818684;77;25552;-69
2021/03/29 12:12:06;;;;;;;20.43;11.25;;;;;;;10.49;67.48;101572.94;1819801;77;25741;-69
2021/03/29 12:14:38;;;;;;;24.63;11.78;;;;;;;10.49;67.40;101576.17;1818219;78;25312;-68
2021/03/29 12:17:09;;;;;;;21.85;11.03;;;;;;;10.51;67.62;101574.02;1818646;78;25498;-68
2021/03/29 12:19:42;;;;;;;22.30;12.25;;;;;;;10.53;67.49;101570.48;1816823;78;25573;-70
2021/03/29 12:22:17;;;;;;;20.15;11.40;;;;;;;10.55;67.31;101569.66;1796733;78;25198;-68
2021/03/29 12:24:48;;;;;;;20.17;11.78;;;;;;;10.58;67.18;101572.62;1796385;79;25758;-65
2021/03/29 12:27:16;;;;;;;25.35;12.07;;;;;;;10.61;66.99;101576.13;1811714;77;25683;-67
2021/03/29 12:29:45;;;;;;;22.95;11.50;;;;;;;10.62;66.82;101565.58;1858539;77;25531;-68
2021/03/29 12:40:08;;;;;;;25.52;13.20;;;;;;;10.75;65.61;101556.59;1815265;79;25726;-67
2021/03/29 12:42:37;;;;;;;21.52;11.48;;;;;;;10.73;65.72;101552.80;1817322;78;25644;-69
2021/03/29 12:45:02;;;;;;;24.02;12.82;;;;;;;10.71;65.59;101562.27;1817757;78;25533;-67
2021/03/29 12:47:32;;;;;;;23.80;12.75;;;;;;;10.68;65.56;101551.48;1813276;79;25499;-68
2021/03/29 12:50:14;;;;;;;24.55;12.40;;;;;;;10.71;65.92;101563.62;1809787;79;26137;-67
2021/03/29 12:52:42;;;;;;;25.45;13.88;;;;;;;10.75;65.84;101557.94;1808495;79;25365;-68
2021/03/29 12:55:19;;;;;;;22.33;13.83;;;;;;;10.80;65.49;101559.27;1808487;79;25384;-68
2021/03/29 12:57:48;;;;;;;26.60;14.23;;;;;;;10.76;65.43;101555.48;1808744;79;25542;-67
2021/03/29 13:00:20;;;;;;;26.97;14.33;;;;;;;10.86;65.25;101559.48;1809565;78;25335;-68
2021/03/29 13:02:49;;;;;;;24.70;13.40;;;;;;;10.92;65.19;101562.43;1809180;79;25704;-68
2021/03/29 13:08:27;;;;;;;25.57;14.15;;;;;;;11.07;65.21;101556.12;1815652;79;34652;-68
2021/03/29 13:13:33;;;;;;;25.37;13.78;;;;;;;11.09;64.52;101545.81;1758482;81;25982;-67
2021/03/29 13:16:05;;;;;;;26.87;15.00;;;;;;;11.12;64.78;101550.66;1780142;80;25467;-69
2021/03/29 13:18:32;;;;;;;32.13;15.85;;;;;;;11.14;64.37;101549.03;1758563;80;25628;-67
2021/03/29 13:20:59;;;;;;;26.65;14.28;;;;;;;11.15;64.58;101548.75;1762997;80;25714;-68
2021/03/29 13:23:32;;;;;;;26.30;14.85;;;;;;;11.19;64.60;101543.02;1763379;80;25658;-68
2021/03/29 13:25:59;;;;;;;36.25;16.52;;;;;;;11.21;64.40;101545.45;1760467;80;26676;-67
2021/03/29 13:28:26;;;;;;;33.40;16.70;;;;;;;11.19;64.02;101542.22;1734412;78;27110;-62
2021/03/29 13:30:53;;;;;;;25.10;15.93;;;;;;;11.17;64.11;101543.06;1716000;82;25327;-63
2021/03/29 13:33:19;;;;;;;28.67;16.70;;;;;;;11.18;64.33;101540.59;1717409;83;26163;-63
2021/03/29 13:35:47;;;;;;;29.92;16.85;;;;;;;11.21;64.55;101533.27;1719394;83;25554;-62
2021/03/29 13:38:16;;;;;;;31.95;17.20;;;;;;;11.25;64.57;101532.16;1721177;82;25895;-63
2021/03/29 13:40:43;;;;;;;32.33;16.73;;;;;;;11.27;64.49;101534.02;1727171;83;32872;-63
2021/03/29 13:43:14;;;;;;;29.25;16.50;;;;;;;11.28;64.68;101536.45;1714613;83;26282;-63
2021/03/29 13:45:41;;;;;;;30.62;16.90;;;;;;;11.27;64.69;101537.56;1703570;84;25596;-63
2021/03/29 13:48:09;;;;;;;29.77;17.32;;;;;;;11.31;64.52;101528.33;1703836;84;25501;-63
2021/03/29 13:50:39;;;;;;;27.40;16.52;;;;;;;11.34;64.80;101530.44;1703618;84;26383;-63
2021/03/29 13:53:08;;;;;;;;;;;;;;;11.40;64.85;101538.24;1706417;84;25275;-63
2021/03/29 13:55:34;;;;;;;32.27;16.53;;;;;;;11.44;64.88;101530.38;1704302;84;25656;-63
2021/03/29 13:58:01;;;;;;;31.82;16.87;;;;;;;11.50;65.22;101531.13;1703651;84;25270;-63
2021/03/29 14:00:28;;;;;;;28.23;17.57;;;;;;;11.54;65.03;101524.05;1704014;84;25341;-63
2021/03/29 14:02:59;;;;;;;30.80;16.67;;;;;;;11.57;65.13;101522.92;1703936;84;25795;-64
2021/03/29 14:05:33;;;;;;;31.87;18.05;;;;;;;11.66;65.34;101525.02;1703700;84;33978;-63
2021/03/29 14:08:01;;;;;;;30.92;17.20;;;;;;;11.67;64.87;101528.00;1703917;84;25505;-63
2021/03/29 14:10:27;;;;;;;26.87;15.95;;;;;;;11.66;64.68;101537.21;1703787;84;25620;-63
2021/03/29 14:12:59;;;;;;;30.50;18.70;;;;;;;11.63;64.44;101526.41;1703677;84;25508;-63
2021/03/29 14:15:27;;;;;;;39.33;19.00;;;;;;;11.61;64.74;101523.16;1703941;84;26634;-63
2021/03/29 14:17:54;;;;;;;27.42;17.32;;;;;;;11.57;64.67;101517.50;1703602;84;25693;-64
2021/03/29 14:20:21;;;;;;;30.27;18.17;;;;;;;11.54;64.94;101518.09;1703133;84;25622;-64
2021/03/29 14:22:47;;;;;;;40.17;17.67;;;;;;;11.53;64.98;101519.17;1703339;84;25568;-64
2021/03/29 14:25:20;;;;;;;30.72;18.27;;;;;;;11.51;65.28;101507.83;1703388;84;25626;-65
2021/03/29 14:27:49;;;;;;;30.48;18.85;;;;;;;11.50;65.61;101510.81;1703229;84;25880;-63
2021/03/29 14:30:17;;;;;;;33.73;18.85;;;;;;;11.53;65.48;101506.98;1703394;84;34617;-62
2021/03/29 14:32:44;;;;;;;32.75;19.65;;;;;;;11.54;65.41;101504.55;1703396;84;25612;-64
2021/03/29 14:43:06;;;;;;;34.43;19.35;;;;;;;11.46;65.53;101506.52;1703021;84;25452;-63
2021/03/29 14:45:31;;;;;;;31.57;17.73;;;;;;;11.44;65.47;101497.87;1703032;84;25538;-63
2021/03/29 14:47:57;;;;;;;34.75;18.60;;;;;;;11.43;65.64;101496.25;1703306;84;25746;-63
2021/03/29 14:50:25;;;;;;;33.25;18.42;;;;;;;11.44;65.89;101495.69;1703055;84;25519;-63
2021/03/29 14:52:52;;;;;;;32.35;18.17;;;;;;;11.43;65.92;101491.37;1703371;84;25729;-63
2021/03/29 14:55:22;;;;;;;32.48;18.90;;;;;;;11.40;65.77;101488.68;1703391;84;25610;-63
2021/03/29 14:57:49;;;;;;;33.42;18.80;;;;;;;11.35;65.93;101480.05;1703205;84;25642;-63
2021/03/29 15:00:19;;;;;;;31.82;19.40;;;;;;;11.34;66.24;101480.33;1703415;84;25488;-64
2021/03/29 15:05:43;;;;;;;36.13;19.85;;;;;;;11.34;66.30;101478.45;1848969;76;34573;-64
2021/03/29 15:08:06;;;;;;;34.75;18.55;;;;;;;11.26;66.50;101478.26;1818249;78;25484;-64
2021/03/29 15:10:33;;;;;;;32.50;19.30;;;;;;;11.25;66.92;101466.59;1819475;78;25852;-63
2021/03/29 15:13:00;;;;;;;35.13;18.77;;;;;;;11.26;66.92;101472.28;1818481;78;25646;-63
2021/03/29 15:15:27;;;;;;;36.93;19.82;;;;;;;11.27;67.47;101469.85;1819319;78;25478;-63
2021/03/29 15:17:53;;;;;;;32.28;19.30;;;;;;;11.27;67.27;101464.96;1819398;78;25493;-64
2021/03/29 15:20:20;;;;;;;37.60;19.75;;;;;;;11.32;67.55;101467.09;1814125;78;25582;-64
2021/03/29 15:22:46;;;;;;;28.27;18.95;;;;;;;11.35;67.33;101472.48;1811550;78;25697;-63
2021/03/29 15:25:13;;;;;;;35.48;19.27;;;;;;;11.33;67.14;101459.77;1797605;78;25525;-63
2021/03/29 15:27:41;;;;;;;31.23;19.23;;;;;;;11.32;67.30;101464.39;1804163;78;25636;-62
2021/03/29 15:30:09;;;;;;;36.10;18.70;;;;;;;11.29;67.13;101464.95;1805563;78;25715;-63
2021/03/29 15:32:36;;;;;;;32.42;18.77;;;;;;;11.27;67.33;101460.90;1804803;78;25632;-63
2021/03/29 15:35:06;;;;;;;33.58;18.55;;;;;;;11.24;67.36;101458.75;1805859;78;25839;-63
2021/03/29 15:37:33;;;;;;;;;;;;;;;11.21;67.61;101461.50;1809039;78;25610;-64
2021/03/29 15:40:01;;;;;;;38.60;18.23;;;;;;;11.18;67.71;101461.50;1801213;78;25514;-64
2021/03/29 15:42:27;;;;;;;32.55;18.90;;;;;;;11.15;68.00;101469.39;1805942;78;25434;-64
2021/03/29 15:44:54;;;;;;;35.68;19.60;;;;;;;11.09;67.92;101461.87;1787315;80;25424;-63
2021/03/29 15:47:21;;;;;;;33.88;19.37;;;;;;;11.08;68.15;101467.01;1787366;80;25850;-63
2021/03/29 15:49:53;;;;;;;33.15;18.95;;;;;;;11.06;68.20;101465.14;1786771;80;25438;-63
2021/03/29 15:52:21;;;;;;;36.73;19.27;;;;;;;11.04;68.33;101461.91;1786264;80;25428;-64
2021/03/29 15:54:49;;;;;;;33.88;20.05;;;;;;;11.04;68.51;101470.03;1786988;80;25640;-63
2021/03/29 15:57:18;;;;;;;32.48;19.50;;;;;;;11.02;68.51;101468.16;1786164;80;25559;-63
2021/03/29 15:59:44;;;;;;;32.40;18.80;;;;;;;11.03;68.51;101471.11;1798217;77;28155;-62
2021/03/29 16:02:17;;;;;;;37.17;19.60;;;;;;;11.02;68.88;101474.93;1797704;77;25608;-62
2021/03/29 16:04:43;;;;;;;33.50;19.80;;;;;;;10.99;68.56;101468.72;1746126;81;25654;-63
2021/03/29 16:07:11;;;;;;;34.55;20.65;;;;;;;10.98;68.87;101481.45;1725882;83;25660;-63
2021/03/29 16:09:39;;;;;;;34.70;19.27;;;;;;;10.97;68.65;101470.91;1752998;79;25580;-62
2021/03/29 16:12:08;;;;;;;37.83;19.32;;;;;;;10.96;68.73;101477.41;1755837;81;25776;-62
2021/03/29 16:14:36;;;;;;;35.78;19.87;;;;;;;10.93;68.78;101472.55;1786799;80;25580;-63
2021/03/29 16:17:05;;;;;;;35.13;18.73;;;;;;;10.91;68.94;101475.53;1755317;81;26093;-64
2021/03/29 16:19:33;;;;;;;36.08;20.43;;;;;;;10.88;68.83;101473.41;1755000;81;25707;-64
2021/03/29 16:22:01;;;;;;;44.08;20.43;;;;;;;10.87;69.03;101468.28;1759229;80;25568;-63
2021/03/29 16:24:29;;;;;;;39.53;20.20;;;;;;;10.84;69.21;101467.76;1756808;79;25895;-63
2021/03/29 16:26:58;;;;;;;33.00;20.27;;;;;;;10.82;69.17;101471.82;1770690;80;25661;-63
2021/03/29 16:29:36;;;;;;;35.65;20.10;;;;;;;10.81;69.11;101474.25;1757228;81;25562;-63
2021/03/29 16:31:56;;;;;;;37.25;19.98;;;;;;;10.78;69.24;101472.94;1766192;80;25628;-62
2021/03/29 16:34:24;;;;;;;32.88;19.70;;;;;;;10.76;69.42;101477.83;1767729;80;25653;-63
2021/03/29 16:36:53;;;;;;;35.23;18.60;;;;;;;10.74;69.51;101480.53;1766683;80;26219;-63
2021/03/29 16:39:20;;;;;;;34.35;19.62;;;;;;;10.71;69.66;101481.09;1765672;79;25629;-63
2021/03/29 16:41:48;;;;;;;36.50;20.95;;;;;;;10.69;69.63;101484.63;1785023;80;25550;-64
2021/03/29 16:44:14;;;;;;;37.20;20.60;;;;;;;10.68;69.69;101484.37;1767029;80;25604;-63
2021/03/29 16:46:41;;;;;;;34.30;20.52;;;;;;;10.64;69.90;101488.99;1757029;81;25261;-64
2021/03/29 16:49:08;;;;;;;45.25;21.10;;;;;;;10.60;69.89;101486.56;1756774;81;25788;-64
2021/03/29 16:51:35;;;;;;;34.13;20.48;;;;;;;10.60;70.11;101495.23;1757126;81;25789;-64
2021/03/29 16:54:02;;;;;;;37.00;21.20;;;;;;;10.58;70.11;101492.01;1757294;81;25524;-63
2021/03/29 16:56:28;;;;;;;37.30;20.75;;;;;;;10.55;70.23;101490.66;1756792;81;25248;-63
2021/03/29 16:58:55;;;;;;;46.35;22.62;;;;;;;10.54;70.09;101492.28;1757346;81;25489;-62
2021/03/29 17:01:22;;;;;;;39.35;21.00;;;;;;;10.54;70.43;101494.46;1757640;81;25711;-63
2021/03/29 17:03:49;;;;;;;35.63;20.85;;;;;;;10.53;70.54;101497.45;1757328;81;25337;-63
2021/03/29 17:06:16;;;;;;;37.13;24.00;;;;;;;10.52;70.49;101498.52;1757632;81;25518;-63
2021/03/29 17:08:42;;;;;;;38.78;22.37;;;;;;;10.50;70.60;101501.50;1757503;81;25583;-64
2021/03/29 17:11:09;;;;;;;44.13;23.05;;;;;;;10.48;70.69;101499.62;1757443;81;25274;-64
2021/03/29 17:13:35;;;;;;;41.75;23.80;;;;;;;10.46;70.86;101499.91;1758009;80;25697;-64
2021/03/29 17:16:04;;;;;;;34.80;22.15;;;;;;;10.45;70.87;101505.06;1757393;81;25785;-65
2021/03/29 17:18:30;;;;;;;41.28;24.20;;;;;;;10.43;71.13;101507.22;1757288;81;25538;-63
2021/03/29 17:20:57;;;;;;;48.45;25.25;;;;;;;10.40;71.40;101504.26;1757240;81;25496;-63
2021/03/29 17:23:24;;;;;;;47.45;26.65;;;;;;;10.36;71.48;101504.01;1757706;81;25453;-63
2021/03/29 17:25:50;;;;;;;43.63;25.35;;;;;;;10.33;71.67;101508.61;1757355;81;27979;-62
2021/03/29 17:28:17;;;;;;;48.50;26.42;;;;;;;10.31;71.87;101510.77;1757460;81;25846;-63
2021/03/29 17:30:44;;;;;;;46.63;26.93;;;;;;;10.27;71.91;101511.06;1757585;80;25347;-64
2021/03/29 17:33:11;;;;;;;43.73;25.55;;;;;;;10.26;72.38;101512.94;1757344;81;25503;-62
2021/03/29 17:35:39;;;;;;;44.18;25.48;;;;;;;10.23;72.25;101516.74;1757738;81;25421;-63
2021/03/29 17:38:07;;;;;;;40.63;24.70;;;;;;;10.22;72.54;101517.84;1757700;81;26670;-62